sensor_id;sensor_type;location;lat;lon;timestamp;P1;durP1;ratioP1;P2;durP2;ratioP2
59115;SDS011;53564;51.930;4.640;2022-08-18T00:00:32;16.30;;;7.40;;
59115;SDS011;53564;51.930;4.640;2022-08-18T00:03:04;14.52;;;7.38;;
59115;SDS011;53564;51.930;4.640;2022-08-18T00:05:31;12.60;;;5.68;;
59115;SDS011;53564;51.930;4.640;2022-08-18T00:08:04;15.23;;;6.95;;
59115;SDS011;53564;51.930;4.640;2022-08-18T00:10:32;17.05;;;7.20;;
59115;SDS011;53564;51.930;4.640;2022-08-18T00:12:59;15.38;;;8.05;;
59115;SDS011;53564;51.930;4.640;2022-08-18T00:15:24;16.63;;;8.25;;
59115;SDS011;53564;51.930;4.640;2022-08-18T00:17:51;15.93;;;7.13;;
59115;SDS011;53564;51.930;4.640;2022-08-18T00:20:21;14.98;;;7.05;;
59115;SDS011;53564;51.930;4.640;2022-08-18T00:22:47;18.58;;;9.55;;
59115;SDS011;53564;51.930;4.640;2022-08-18T00:25:15;19.58;;;10.60;;
59115;SDS011;53564;51.930;4.640;2022-08-18T00:27:41;18.92;;;9.95;;
59115;SDS011;53564;51.930;4.640;2022-08-18T00:30:08;19.23;;;7.70;;
59115;SDS011;53564;51.930;4.640;2022-08-18T00:32:42;16.42;;;7.95;;
59115;SDS011;53564;51.930;4.640;2022-08-18T00:35:12;15.25;;;7.53;;
59115;SDS011;53564;51.930;4.640;2022-08-18T00:37:42;15.52;;;8.15;;
59115;SDS011;53564;51.930;4.640;2022-08-18T00:40:09;19.48;;;8.68;;
59115;SDS011;53564;51.930;4.640;2022-08-18T00:42:42;16.45;;;6.93;;
59115;SDS011;53564;51.930;4.640;2022-08-18T00:45:15;16.40;;;7.75;;
59115;SDS011;53564;51.930;4.640;2022-08-18T00:47:44;15.45;;;7.15;;
59115;SDS011;53564;51.930;4.640;2022-08-18T00:50:11;21.77;;;11.13;;
59115;SDS011;53564;51.930;4.640;2022-08-18T00:52:49;22.17;;;11.82;;
59115;SDS011;53564;51.930;4.640;2022-08-18T00:55:29;22.70;;;12.15;;
59115;SDS011;53564;51.930;4.640;2022-08-18T00:58:04;21.88;;;12.40;;
59115;SDS011;53564;51.930;4.640;2022-08-18T01:00:32;21.85;;;11.90;;
59115;SDS011;53564;51.930;4.640;2022-08-18T01:03:00;20.15;;;11.05;;
59115;SDS011;53564;51.930;4.640;2022-08-18T01:05:36;22.38;;;11.43;;
59115;SDS011;53564;51.930;4.640;2022-08-18T01:08:08;20.08;;;11.90;;
59115;SDS011;53564;51.930;4.640;2022-08-18T01:10:40;22.85;;;11.77;;
59115;SDS011;53564;51.930;4.640;2022-08-18T01:13:07;16.25;;;7.85;;
59115;SDS011;53564;51.930;4.640;2022-08-18T01:15:32;17.38;;;8.23;;
59115;SDS011;53564;51.930;4.640;2022-08-18T01:18:02;14.70;;;7.55;;
59115;SDS011;53564;51.930;4.640;2022-08-18T01:24:28;15.30;;;8.05;;
59115;SDS011;53564;51.930;4.640;2022-08-18T01:27:17;16.30;;;8.07;;
59115;SDS011;53564;51.930;4.640;2022-08-18T01:29:49;14.00;;;6.75;;
59115;SDS011;53564;51.930;4.640;2022-08-18T01:32:17;13.07;;;6.28;;
59115;SDS011;53564;51.930;4.640;2022-08-18T01:34:47;17.15;;;8.60;;
59115;SDS011;53564;51.930;4.640;2022-08-18T01:37:17;15.50;;;7.78;;
59115;SDS011;53564;51.930;4.640;2022-08-18T01:42:13;16.48;;;7.80;;
59115;SDS011;53564;51.930;4.640;2022-08-18T01:44:43;13.15;;;6.18;;
59115;SDS011;53564;51.930;4.640;2022-08-18T01:47:12;15.90;;;6.13;;
59115;SDS011;53564;51.930;4.640;2022-08-18T01:49:38;13.90;;;6.40;;
59115;SDS011;53564;51.930;4.640;2022-08-18T01:52:08;19.08;;;9.82;;
59115;SDS011;53564;51.930;4.640;2022-08-18T01:54:35;21.17;;;11.98;;
59115;SDS011;53564;51.930;4.640;2022-08-18T01:57:03;13.43;;;6.35;;
59115;SDS011;53564;51.930;4.640;2022-08-18T01:59:37;14.27;;;6.55;;
59115;SDS011;53564;51.930;4.640;2022-08-18T02:02:04;13.18;;;6.18;;
59115;SDS011;53564;51.930;4.640;2022-08-18T02:04:30;13.50;;;6.85;;
59115;SDS011;53564;51.930;4.640;2022-08-18T02:07:05;14.50;;;7.10;;
59115;SDS011;53564;51.930;4.640;2022-08-18T02:09:32;18.55;;;10.93;;
59115;SDS011;53564;51.930;4.640;2022-08-18T02:11:58;16.50;;;7.45;;
59115;SDS011;53564;51.930;4.640;2022-08-18T02:14:24;17.60;;;9.02;;
59115;SDS011;53564;51.930;4.640;2022-08-18T02:16:50;16.55;;;7.78;;
59115;SDS011;53564;51.930;4.640;2022-08-18T02:19:18;17.73;;;9.75;;
59115;SDS011;53564;51.930;4.640;2022-08-18T02:21:46;19.15;;;9.52;;
59115;SDS011;53564;51.930;4.640;2022-08-18T02:24:11;17.70;;;9.00;;
59115;SDS011;53564;51.930;4.640;2022-08-18T02:26:50;13.50;;;6.25;;
59115;SDS011;53564;51.930;4.640;2022-08-18T02:29:15;14.27;;;7.18;;
59115;SDS011;53564;51.930;4.640;2022-08-18T02:31:44;15.77;;;6.97;;
59115;SDS011;53564;51.930;4.640;2022-08-18T02:34:16;12.90;;;6.10;;
59115;SDS011;53564;51.930;4.640;2022-08-18T02:36:42;13.27;;;5.78;;
59115;SDS011;53564;51.930;4.640;2022-08-18T02:39:13;13.90;;;6.88;;
59115;SDS011;53564;51.930;4.640;2022-08-18T02:41:38;13.23;;;5.53;;
59115;SDS011;53564;51.930;4.640;2022-08-18T02:44:05;15.43;;;7.18;;
59115;SDS011;53564;51.930;4.640;2022-08-18T02:46:34;15.40;;;6.82;;
59115;SDS011;53564;51.930;4.640;2022-08-18T02:49:01;22.08;;;13.65;;
59115;SDS011;53564;51.930;4.640;2022-08-18T02:51:28;24.63;;;14.80;;
59115;SDS011;53564;51.930;4.640;2022-08-18T02:53:54;14.15;;;6.97;;
59115;SDS011;53564;51.930;4.640;2022-08-18T02:56:27;13.85;;;6.35;;
59115;SDS011;53564;51.930;4.640;2022-08-18T02:59:00;14.57;;;6.70;;
59115;SDS011;53564;51.930;4.640;2022-08-18T03:01:31;17.48;;;6.53;;
59115;SDS011;53564;51.930;4.640;2022-08-18T03:04:00;14.75;;;6.72;;
59115;SDS011;53564;51.930;4.640;2022-08-18T03:06:26;13.02;;;6.30;;
59115;SDS011;53564;51.930;4.640;2022-08-18T03:08:53;15.85;;;6.53;;
59115;SDS011;53564;51.930;4.640;2022-08-18T03:11:20;14.30;;;6.50;;
59115;SDS011;53564;51.930;4.640;2022-08-18T03:13:49;14.70;;;6.70;;
59115;SDS011;53564;51.930;4.640;2022-08-18T03:16:16;13.35;;;5.63;;
59115;SDS011;53564;51.930;4.640;2022-08-18T03:18:48;15.07;;;6.40;;
59115;SDS011;53564;51.930;4.640;2022-08-18T03:21:17;13.45;;;6.28;;
59115;SDS011;53564;51.930;4.640;2022-08-18T03:23:46;15.00;;;7.03;;
59115;SDS011;53564;51.930;4.640;2022-08-18T03:26:18;15.40;;;7.70;;
59115;SDS011;53564;51.930;4.640;2022-08-18T03:28:47;19.08;;;10.52;;
59115;SDS011;53564;51.930;4.640;2022-08-18T03:31:14;15.95;;;8.13;;
59115;SDS011;53564;51.930;4.640;2022-08-18T03:33:41;17.10;;;8.77;;
59115;SDS011;53564;51.930;4.640;2022-08-18T03:36:11;18.80;;;9.13;;
59115;SDS011;53564;51.930;4.640;2022-08-18T03:38:41;16.73;;;8.37;;
59115;SDS011;53564;51.930;4.640;2022-08-18T03:41:15;18.23;;;7.80;;
59115;SDS011;53564;51.930;4.640;2022-08-18T03:43:42;16.23;;;7.03;;
59115;SDS011;53564;51.930;4.640;2022-08-18T03:46:09;14.85;;;7.55;;
59115;SDS011;53564;51.930;4.640;2022-08-18T03:48:41;16.00;;;8.07;;
59115;SDS011;53564;51.930;4.640;2022-08-18T03:51:26;13.68;;;6.43;;
59115;SDS011;53564;51.930;4.640;2022-08-18T03:53:55;13.35;;;6.00;;
59115;SDS011;53564;51.930;4.640;2022-08-18T03:56:26;15.85;;;6.80;;
59115;SDS011;53564;51.930;4.640;2022-08-18T03:58:57;16.67;;;8.10;;
59115;SDS011;53564;51.930;4.640;2022-08-18T04:01:26;18.33;;;8.63;;
59115;SDS011;53564;51.930;4.640;2022-08-18T04:03:57;20.02;;;9.15;;
59115;SDS011;53564;51.930;4.640;2022-08-18T04:06:26;15.60;;;6.68;;
59115;SDS011;53564;51.930;4.640;2022-08-18T04:08:54;15.93;;;7.90;;
59115;SDS011;53564;51.930;4.640;2022-08-18T04:11:22;16.17;;;7.97;;
59115;SDS011;53564;51.930;4.640;2022-08-18T04:13:48;14.55;;;6.85;;
59115;SDS011;53564;51.930;4.640;2022-08-18T04:16:16;16.20;;;8.25;;
59115;SDS011;53564;51.930;4.640;2022-08-18T04:18:44;14.75;;;6.97;;
59115;SDS011;53564;51.930;4.640;2022-08-18T04:21:10;13.70;;;6.15;;
59115;SDS011;53564;51.930;4.640;2022-08-18T04:23:39;13.45;;;6.85;;
59115;SDS011;53564;51.930;4.640;2022-08-18T04:26:06;15.20;;;7.13;;
59115;SDS011;53564;51.930;4.640;2022-08-18T04:28:34;15.40;;;7.63;;
59115;SDS011;53564;51.930;4.640;2022-08-18T04:31:10;14.38;;;6.57;;
59115;SDS011;53564;51.930;4.640;2022-08-18T04:33:37;14.98;;;6.85;;
59115;SDS011;53564;51.930;4.640;2022-08-18T04:36:10;12.50;;;5.93;;
59115;SDS011;53564;51.930;4.640;2022-08-18T04:38:39;12.65;;;5.75;;
59115;SDS011;53564;51.930;4.640;2022-08-18T04:41:10;13.95;;;5.72;;
59115;SDS011;53564;51.930;4.640;2022-08-18T04:43:38;14.90;;;7.30;;
59115;SDS011;53564;51.930;4.640;2022-08-18T04:46:04;14.60;;;6.53;;
59115;SDS011;53564;51.930;4.640;2022-08-18T04:48:32;13.57;;;6.82;;
59115;SDS011;53564;51.930;4.640;2022-08-18T04:51:07;14.63;;;6.57;;
59115;SDS011;53564;51.930;4.640;2022-08-18T04:53:35;14.52;;;7.18;;
59115;SDS011;53564;51.930;4.640;2022-08-18T04:56:21;18.10;;;8.65;;
59115;SDS011;53564;51.930;4.640;2022-08-18T04:58:57;15.77;;;5.60;;
59115;SDS011;53564;51.930;4.640;2022-08-18T05:01:27;15.85;;;7.00;;
59115;SDS011;53564;51.930;4.640;2022-08-18T05:03:55;13.95;;;5.43;;
59115;SDS011;53564;51.930;4.640;2022-08-18T05:06:23;13.63;;;6.25;;
59115;SDS011;53564;51.930;4.640;2022-08-18T05:08:53;11.45;;;4.82;;
59115;SDS011;53564;51.930;4.640;2022-08-18T05:11:21;13.63;;;4.88;;
59115;SDS011;53564;51.930;4.640;2022-08-18T05:13:48;12.02;;;5.22;;
59115;SDS011;53564;51.930;4.640;2022-08-18T05:16:16;12.30;;;5.43;;
59115;SDS011;53564;51.930;4.640;2022-08-18T05:18:42;13.57;;;5.75;;
59115;SDS011;53564;51.930;4.640;2022-08-18T05:21:08;18.65;;;6.15;;
59115;SDS011;53564;51.930;4.640;2022-08-18T05:23:39;14.60;;;6.78;;
59115;SDS011;53564;51.930;4.640;2022-08-18T05:26:08;13.77;;;7.30;;
59115;SDS011;53564;51.930;4.640;2022-08-18T05:28:34;14.45;;;6.20;;
59115;SDS011;53564;51.930;4.640;2022-08-18T05:31:11;12.25;;;5.07;;
59115;SDS011;53564;51.930;4.640;2022-08-18T05:33:39;12.48;;;5.28;;
59115;SDS011;53564;51.930;4.640;2022-08-18T05:36:09;13.75;;;6.28;;
59115;SDS011;53564;51.930;4.640;2022-08-18T05:41:29;12.98;;;5.43;;
59115;SDS011;53564;51.930;4.640;2022-08-18T05:43:59;13.30;;;6.10;;
59115;SDS011;53564;51.930;4.640;2022-08-18T05:46:49;12.95;;;5.90;;
59115;SDS011;53564;51.930;4.640;2022-08-18T05:49:17;14.38;;;5.75;;
59115;SDS011;53564;51.930;4.640;2022-08-18T05:51:45;20.42;;;9.70;;
59115;SDS011;53564;51.930;4.640;2022-08-18T05:54:16;13.18;;;6.10;;
59115;SDS011;53564;51.930;4.640;2022-08-18T05:57:04;14.48;;;6.07;;
59115;SDS011;53564;51.930;4.640;2022-08-18T05:59:39;15.13;;;6.35;;
59115;SDS011;53564;51.930;4.640;2022-08-18T06:02:11;14.60;;;5.78;;
59115;SDS011;53564;51.930;4.640;2022-08-18T06:05:25;15.38;;;6.63;;
59115;SDS011;53564;51.930;4.640;2022-08-18T06:10:07;18.35;;;9.63;;
59115;SDS011;53564;51.930;4.640;2022-08-18T06:12:35;13.80;;;6.72;;
59115;SDS011;53564;51.930;4.640;2022-08-18T06:18:01;14.23;;;6.97;;
59115;SDS011;53564;51.930;4.640;2022-08-18T06:34:42;19.23;;;7.60;;
59115;SDS011;53564;51.930;4.640;2022-08-18T06:40:55;16.75;;;7.53;;
59115;SDS011;53564;51.930;4.640;2022-08-18T06:43:26;13.00;;;6.18;;
59115;SDS011;53564;51.930;4.640;2022-08-18T06:45:52;15.45;;;7.20;;
59115;SDS011;53564;51.930;4.640;2022-08-18T06:50:55;16.83;;;6.95;;
59115;SDS011;53564;51.930;4.640;2022-08-18T06:53:48;14.48;;;6.00;;
59115;SDS011;53564;51.930;4.640;2022-08-18T07:02:01;13.48;;;5.93;;
59115;SDS011;53564;51.930;4.640;2022-08-18T07:09:40;13.43;;;6.07;;
59115;SDS011;53564;51.930;4.640;2022-08-18T07:12:07;23.00;;;8.63;;
59115;SDS011;53564;51.930;4.640;2022-08-18T07:14:44;17.58;;;8.55;;
59115;SDS011;53564;51.930;4.640;2022-08-18T07:17:28;14.55;;;7.18;;
59115;SDS011;53564;51.930;4.640;2022-08-18T07:20:08;13.38;;;5.40;;
59115;SDS011;53564;51.930;4.640;2022-08-18T07:22:58;12.13;;;5.25;;
59115;SDS011;53564;51.930;4.640;2022-08-18T07:25:29;15.07;;;7.45;;
59115;SDS011;53564;51.930;4.640;2022-08-18T07:28:04;15.85;;;6.93;;
59115;SDS011;53564;51.930;4.640;2022-08-18T07:30:33;13.85;;;5.50;;
59115;SDS011;53564;51.930;4.640;2022-08-18T07:40:50;11.98;;;4.82;;
59115;SDS011;53564;51.930;4.640;2022-08-18T07:43:22;13.93;;;6.10;;
59115;SDS011;53564;51.930;4.640;2022-08-18T07:45:53;13.90;;;5.97;;
59115;SDS011;53564;51.930;4.640;2022-08-18T07:48:24;14.30;;;4.95;;
59115;SDS011;53564;51.930;4.640;2022-08-18T07:51:00;13.57;;;6.80;;
59115;SDS011;53564;51.930;4.640;2022-08-18T07:53:41;14.57;;;6.75;;
59115;SDS011;53564;51.930;4.640;2022-08-18T07:56:21;17.52;;;7.03;;
59115;SDS011;53564;51.930;4.640;2022-08-18T07:59:40;16.75;;;7.63;;
59115;SDS011;53564;51.930;4.640;2022-08-18T08:02:05;16.50;;;7.30;;
59115;SDS011;53564;51.930;4.640;2022-08-18T08:04:59;13.52;;;6.63;;
59115;SDS011;53564;51.930;4.640;2022-08-18T08:07:53;12.95;;;6.32;;
59115;SDS011;53564;51.930;4.640;2022-08-18T08:15:54;14.10;;;5.22;;
59115;SDS011;53564;51.930;4.640;2022-08-18T08:21:00;13.20;;;5.22;;
59115;SDS011;53564;51.930;4.640;2022-08-18T08:26:21;14.13;;;4.97;;
59115;SDS011;53564;51.930;4.640;2022-08-18T08:29:01;13.95;;;5.47;;
59115;SDS011;53564;51.930;4.640;2022-08-18T08:31:54;11.07;;;5.03;;
59115;SDS011;53564;51.930;4.640;2022-08-18T08:37:23;12.75;;;5.20;;
59115;SDS011;53564;51.930;4.640;2022-08-18T08:39:59;14.38;;;5.15;;
59115;SDS011;53564;51.930;4.640;2022-08-18T08:42:39;12.48;;;5.60;;
59115;SDS011;53564;51.930;4.640;2022-08-18T08:45:11;14.70;;;5.40;;
59115;SDS011;53564;51.930;4.640;2022-08-18T08:50:21;12.10;;;5.30;;
59115;SDS011;53564;51.930;4.640;2022-08-18T08:53:13;18.55;;;5.47;;
59115;SDS011;53564;51.930;4.640;2022-08-18T08:55:36;12.80;;;4.82;;
59115;SDS011;53564;51.930;4.640;2022-08-18T08:58:19;11.50;;;4.35;;
59115;SDS011;53564;51.930;4.640;2022-08-18T09:00:52;12.00;;;4.47;;
59115;SDS011;53564;51.930;4.640;2022-08-18T09:12:03;10.98;;;3.58;;
59115;SDS011;53564;51.930;4.640;2022-08-18T09:14:47;11.63;;;4.13;;
59115;SDS011;53564;51.930;4.640;2022-08-18T09:20:34;11.95;;;3.83;;
59115;SDS011;53564;51.930;4.640;2022-08-18T09:23:13;10.80;;;4.00;;
59115;SDS011;53564;51.930;4.640;2022-08-18T09:25:53;11.02;;;3.80;;
59115;SDS011;53564;51.930;4.640;2022-08-18T09:50:32;11.90;;;3.58;;
59115;SDS011;53564;51.930;4.640;2022-08-18T09:53:30;11.70;;;3.42;;
59115;SDS011;53564;51.930;4.640;2022-08-18T09:55:58;10.23;;;3.45;;
59115;SDS011;53564;51.930;4.640;2022-08-18T10:06:38;10.10;;;3.33;;
59115;SDS011;53564;51.930;4.640;2022-08-18T10:09:06;9.15;;;3.40;;
59115;SDS011;53564;51.930;4.640;2022-08-18T10:11:41;8.30;;;3.00;;
59115;SDS011;53564;51.930;4.640;2022-08-18T10:14:24;9.02;;;3.50;;
59115;SDS011;53564;51.930;4.640;2022-08-18T10:20:06;8.88;;;2.95;;
59115;SDS011;53564;51.930;4.640;2022-08-18T10:22:47;13.73;;;3.38;;
59115;SDS011;53564;51.930;4.640;2022-08-18T10:25:29;7.93;;;2.95;;
59115;SDS011;53564;51.930;4.640;2022-08-18T10:27:56;7.95;;;2.83;;
59115;SDS011;53564;51.930;4.640;2022-08-18T10:32:59;9.73;;;3.60;;
59115;SDS011;53564;51.930;4.640;2022-08-18T10:38:01;11.75;;;4.18;;
59115;SDS011;53564;51.930;4.640;2022-08-18T10:40:27;12.00;;;5.20;;
59115;SDS011;53564;51.930;4.640;2022-08-18T10:43:09;13.35;;;5.40;;
59115;SDS011;53564;51.930;4.640;2022-08-18T10:45:44;11.35;;;4.85;;
59115;SDS011;53564;51.930;4.640;2022-08-18T10:48:16;15.10;;;5.20;;
59115;SDS011;53564;51.930;4.640;2022-08-18T10:50:50;12.10;;;4.20;;
59115;SDS011;53564;51.930;4.640;2022-08-18T10:53:32;13.60;;;4.80;;
59115;SDS011;53564;51.930;4.640;2022-08-18T10:56:08;12.23;;;5.18;;
59115;SDS011;53564;51.930;4.640;2022-08-18T11:01:43;14.55;;;5.55;;
59115;SDS011;53564;51.930;4.640;2022-08-18T11:06:50;11.90;;;5.35;;
59115;SDS011;53564;51.930;4.640;2022-08-18T11:09:24;12.48;;;5.53;;
59115;SDS011;53564;51.930;4.640;2022-08-18T11:11:51;12.30;;;5.35;;
59115;SDS011;53564;51.930;4.640;2022-08-18T11:14:40;13.50;;;5.25;;
59115;SDS011;53564;51.930;4.640;2022-08-18T11:19:40;11.30;;;5.50;;
59115;SDS011;53564;51.930;4.640;2022-08-18T11:22:26;13.32;;;6.22;;
59115;SDS011;53564;51.930;4.640;2022-08-18T11:24:55;10.38;;;4.60;;
59115;SDS011;53564;51.930;4.640;2022-08-18T11:27:22;12.30;;;5.03;;
59115;SDS011;53564;51.930;4.640;2022-08-18T11:29:53;11.27;;;4.57;;
59115;SDS011;53564;51.930;4.640;2022-08-18T11:32:24;12.02;;;4.30;;
59115;SDS011;53564;51.930;4.640;2022-08-18T11:37:23;12.48;;;4.75;;
59115;SDS011;53564;51.930;4.640;2022-08-18T11:39:55;11.75;;;5.22;;
59115;SDS011;53564;51.930;4.640;2022-08-18T11:42:27;12.23;;;5.10;;
59115;SDS011;53564;51.930;4.640;2022-08-18T11:50:43;11.15;;;5.03;;
59115;SDS011;53564;51.930;4.640;2022-08-18T11:53:20;10.15;;;4.47;;
59115;SDS011;53564;51.930;4.640;2022-08-18T11:56:04;12.35;;;4.90;;
59115;SDS011;53564;51.930;4.640;2022-08-18T12:07:25;10.48;;;4.38;;
59115;SDS011;53564;51.930;4.640;2022-08-18T12:12:24;9.90;;;4.00;;
59115;SDS011;53564;51.930;4.640;2022-08-18T12:14:58;11.73;;;4.68;;
59115;SDS011;53564;51.930;4.640;2022-08-18T12:17:31;11.45;;;4.78;;
59115;SDS011;53564;51.930;4.640;2022-08-18T12:19:57;11.15;;;4.10;;
59115;SDS011;53564;51.930;4.640;2022-08-18T12:22:25;11.80;;;4.10;;
59115;SDS011;53564;51.930;4.640;2022-08-18T12:24:52;11.63;;;4.15;;
59115;SDS011;53564;51.930;4.640;2022-08-18T12:27:19;10.15;;;3.80;;
59115;SDS011;53564;51.930;4.640;2022-08-18T12:29:46;14.88;;;3.92;;
59115;SDS011;53564;51.930;4.640;2022-08-18T12:32:11;10.68;;;3.90;;
59115;SDS011;53564;51.930;4.640;2022-08-18T12:34:37;11.13;;;3.95;;
59115;SDS011;53564;51.930;4.640;2022-08-18T12:37:03;8.73;;;3.92;;
59115;SDS011;53564;51.930;4.640;2022-08-18T12:39:31;8.60;;;3.60;;
59115;SDS011;53564;51.930;4.640;2022-08-18T12:41:56;10.30;;;4.10;;
59115;SDS011;53564;51.930;4.640;2022-08-18T12:44:22;9.82;;;4.22;;
59115;SDS011;53564;51.930;4.640;2022-08-18T12:46:48;10.40;;;4.15;;
59115;SDS011;53564;51.930;4.640;2022-08-18T12:49:16;11.82;;;4.75;;
59115;SDS011;53564;51.930;4.640;2022-08-18T12:51:43;11.15;;;4.35;;
59115;SDS011;53564;51.930;4.640;2022-08-18T12:54:09;10.93;;;4.57;;
59115;SDS011;53564;51.930;4.640;2022-08-18T12:56:35;10.52;;;4.32;;
59115;SDS011;53564;51.930;4.640;2022-08-18T12:59:02;10.43;;;4.00;;
59115;SDS011;53564;51.930;4.640;2022-08-18T13:01:29;11.35;;;4.20;;
59115;SDS011;53564;51.930;4.640;2022-08-18T13:03:54;9.80;;;3.65;;
59115;SDS011;53564;51.930;4.640;2022-08-18T13:06:20;10.93;;;4.20;;
59115;SDS011;53564;51.930;4.640;2022-08-18T13:08:47;10.63;;;4.13;;
59115;SDS011;53564;51.930;4.640;2022-08-18T13:11:14;9.90;;;3.92;;
59115;SDS011;53564;51.930;4.640;2022-08-18T13:13:41;10.57;;;4.20;;
59115;SDS011;53564;51.930;4.640;2022-08-18T13:16:06;11.25;;;4.20;;
59115;SDS011;53564;51.930;4.640;2022-08-18T13:18:32;10.32;;;4.60;;
59115;SDS011;53564;51.930;4.640;2022-08-18T13:20:59;10.50;;;4.88;;
59115;SDS011;53564;51.930;4.640;2022-08-18T13:23:25;12.18;;;5.55;;
59115;SDS011;53564;51.930;4.640;2022-08-18T13:25:51;11.80;;;5.30;;
59115;SDS011;53564;51.930;4.640;2022-08-18T13:28:17;12.43;;;4.70;;
59115;SDS011;53564;51.930;4.640;2022-08-18T13:30:42;11.95;;;5.50;;
59115;SDS011;53564;51.930;4.640;2022-08-18T13:33:09;12.63;;;4.97;;
59115;SDS011;53564;51.930;4.640;2022-08-18T13:35:34;11.00;;;4.60;;
59115;SDS011;53564;51.930;4.640;2022-08-18T13:37:59;12.52;;;5.25;;
59115;SDS011;53564;51.930;4.640;2022-08-18T13:40:25;16.55;;;5.50;;
59115;SDS011;53564;51.930;4.640;2022-08-18T13:42:50;13.82;;;5.95;;
59115;SDS011;53564;51.930;4.640;2022-08-18T13:45:16;13.85;;;6.20;;
59115;SDS011;53564;51.930;4.640;2022-08-18T13:47:45;11.20;;;5.07;;
59115;SDS011;53564;51.930;4.640;2022-08-18T13:50:11;12.25;;;4.80;;
59115;SDS011;53564;51.930;4.640;2022-08-18T13:52:38;12.65;;;5.43;;
59115;SDS011;53564;51.930;4.640;2022-08-18T13:55:05;11.45;;;4.95;;
59115;SDS011;53564;51.930;4.640;2022-08-18T13:57:34;11.23;;;5.05;;
59115;SDS011;53564;51.930;4.640;2022-08-18T14:00:00;12.70;;;5.05;;
59115;SDS011;53564;51.930;4.640;2022-08-18T14:02:25;12.50;;;5.45;;
59115;SDS011;53564;51.930;4.640;2022-08-18T14:04:51;11.00;;;4.60;;
59115;SDS011;53564;51.930;4.640;2022-08-18T14:07:19;11.85;;;4.95;;
59115;SDS011;53564;51.930;4.640;2022-08-18T14:09:45;12.93;;;4.88;;
59115;SDS011;53564;51.930;4.640;2022-08-18T14:12:28;12.43;;;4.72;;
59115;SDS011;53564;51.930;4.640;2022-08-18T14:17:20;13.07;;;5.20;;
59115;SDS011;53564;51.930;4.640;2022-08-18T14:19:49;11.98;;;4.57;;
59115;SDS011;53564;51.930;4.640;2022-08-18T14:22:34;13.50;;;5.05;;
59115;SDS011;53564;51.930;4.640;2022-08-18T14:25:18;12.20;;;4.60;;
59115;SDS011;53564;51.930;4.640;2022-08-18T14:28:02;11.23;;;4.70;;
59115;SDS011;53564;51.930;4.640;2022-08-18T14:30:27;10.57;;;4.20;;
59115;SDS011;53564;51.930;4.640;2022-08-18T14:32:53;13.00;;;5.03;;
59115;SDS011;53564;51.930;4.640;2022-08-18T14:35:19;11.63;;;5.25;;
59115;SDS011;53564;51.930;4.640;2022-08-18T14:37:46;11.40;;;4.60;;
59115;SDS011;53564;51.930;4.640;2022-08-18T14:40:11;10.73;;;4.35;;
59115;SDS011;53564;51.930;4.640;2022-08-18T14:42:36;10.35;;;4.28;;
59115;SDS011;53564;51.930;4.640;2022-08-18T14:45:04;10.93;;;4.50;;
59115;SDS011;53564;51.930;4.640;2022-08-18T14:47:30;12.15;;;4.60;;
59115;SDS011;53564;51.930;4.640;2022-08-18T14:49:56;10.70;;;4.05;;
59115;SDS011;53564;51.930;4.640;2022-08-18T14:52:22;10.35;;;4.30;;
59115;SDS011;53564;51.930;4.640;2022-08-18T14:54:51;13.23;;;4.28;;
59115;SDS011;53564;51.930;4.640;2022-08-18T14:57:20;11.30;;;4.38;;
59115;SDS011;53564;51.930;4.640;2022-08-18T14:59:45;10.88;;;4.40;;
59115;SDS011;53564;51.930;4.640;2022-08-18T15:02:11;11.18;;;4.68;;
59115;SDS011;53564;51.930;4.640;2022-08-18T15:04:37;11.15;;;4.53;;
59115;SDS011;53564;51.930;4.640;2022-08-18T15:07:03;11.02;;;4.10;;
59115;SDS011;53564;51.930;4.640;2022-08-18T15:09:28;10.25;;;4.22;;
59115;SDS011;53564;51.930;4.640;2022-08-18T15:11:57;13.02;;;4.90;;
59115;SDS011;53564;51.930;4.640;2022-08-18T15:14:24;11.13;;;3.95;;
59115;SDS011;53564;51.930;4.640;2022-08-18T15:16:50;10.23;;;3.90;;
59115;SDS011;53564;51.930;4.640;2022-08-18T15:19:16;11.90;;;3.92;;
59115;SDS011;53564;51.930;4.640;2022-08-18T15:21:41;10.13;;;3.60;;
59115;SDS011;53564;51.930;4.640;2022-08-18T15:24:25;12.27;;;3.90;;
59115;SDS011;53564;51.930;4.640;2022-08-18T15:27:09;11.27;;;4.05;;
59115;SDS011;53564;51.930;4.640;2022-08-18T15:29:34;10.40;;;3.35;;
59115;SDS011;53564;51.930;4.640;2022-08-18T15:31:59;12.98;;;4.35;;
59115;SDS011;53564;51.930;4.640;2022-08-18T15:34:26;11.68;;;3.83;;
59115;SDS011;53564;51.930;4.640;2022-08-18T15:36:52;11.80;;;3.60;;
59115;SDS011;53564;51.930;4.640;2022-08-18T15:39:17;11.38;;;3.80;;
59115;SDS011;53564;51.930;4.640;2022-08-18T15:41:43;10.35;;;3.72;;
59115;SDS011;53564;51.930;4.640;2022-08-18T15:44:13;9.88;;;3.47;;
59115;SDS011;53564;51.930;4.640;2022-08-18T15:46:40;10.95;;;3.35;;
59115;SDS011;53564;51.930;4.640;2022-08-18T15:49:05;9.93;;;3.50;;
59115;SDS011;53564;51.930;4.640;2022-08-18T15:51:35;10.80;;;3.92;;
59115;SDS011;53564;51.930;4.640;2022-08-18T15:54:02;12.38;;;3.85;;
59115;SDS011;53564;51.930;4.640;2022-08-18T15:56:29;12.15;;;3.70;;
59115;SDS011;53564;51.930;4.640;2022-08-18T15:58:56;11.00;;;3.65;;
59115;SDS011;53564;51.930;4.640;2022-08-18T16:01:30;10.82;;;3.83;;
59115;SDS011;53564;51.930;4.640;2022-08-18T16:03:56;12.32;;;3.80;;
59115;SDS011;53564;51.930;4.640;2022-08-18T16:06:22;13.07;;;4.05;;
59115;SDS011;53564;51.930;4.640;2022-08-18T16:08:50;10.50;;;3.75;;
59115;SDS011;53564;51.930;4.640;2022-08-18T16:11:17;10.85;;;3.92;;
59115;SDS011;53564;51.930;4.640;2022-08-18T16:13:43;14.63;;;4.30;;
59115;SDS011;53564;51.930;4.640;2022-08-18T16:16:14;11.95;;;4.20;;
59115;SDS011;53564;51.930;4.640;2022-08-18T16:18:42;11.68;;;3.63;;
59115;SDS011;53564;51.930;4.640;2022-08-18T16:21:12;10.15;;;3.53;;
59115;SDS011;53564;51.930;4.640;2022-08-18T16:23:41;14.02;;;3.95;;
59115;SDS011;53564;51.930;4.640;2022-08-18T16:26:09;11.10;;;3.80;;
59115;SDS011;53564;51.930;4.640;2022-08-18T16:28:38;12.32;;;4.05;;
59115;SDS011;53564;51.930;4.640;2022-08-18T16:31:03;10.60;;;3.58;;
59115;SDS011;53564;51.930;4.640;2022-08-18T16:33:30;12.57;;;4.15;;
59115;SDS011;53564;51.930;4.640;2022-08-18T16:35:55;10.70;;;4.07;;
59115;SDS011;53564;51.930;4.640;2022-08-18T16:38:20;13.88;;;4.68;;
59115;SDS011;53564;51.930;4.640;2022-08-18T16:40:46;11.18;;;4.35;;
59115;SDS011;53564;51.930;4.640;2022-08-18T16:43:12;13.32;;;4.40;;
59115;SDS011;53564;51.930;4.640;2022-08-18T16:45:39;12.95;;;4.60;;
59115;SDS011;53564;51.930;4.640;2022-08-18T16:48:06;14.02;;;4.75;;
59115;SDS011;53564;51.930;4.640;2022-08-18T16:50:32;15.48;;;4.85;;
59115;SDS011;53564;51.930;4.640;2022-08-18T16:52:59;11.50;;;4.82;;
59115;SDS011;53564;51.930;4.640;2022-08-18T16:55:24;12.60;;;4.78;;
59115;SDS011;53564;51.930;4.640;2022-08-18T16:57:49;11.02;;;4.30;;
59115;SDS011;53564;51.930;4.640;2022-08-18T17:00:34;13.93;;;4.80;;
59115;SDS011;53564;51.930;4.640;2022-08-18T17:03:18;11.57;;;4.32;;
59115;SDS011;53564;51.930;4.640;2022-08-18T17:06:22;11.50;;;4.25;;
59115;SDS011;53564;51.930;4.640;2022-08-18T17:08:48;12.50;;;4.60;;
59115;SDS011;53564;51.930;4.640;2022-08-18T17:11:15;11.82;;;4.25;;
59115;SDS011;53564;51.930;4.640;2022-08-18T17:13:42;12.55;;;4.03;;
59115;SDS011;53564;51.930;4.640;2022-08-18T17:16:09;11.27;;;3.70;;
59115;SDS011;53564;51.930;4.640;2022-08-18T17:18:36;12.02;;;4.40;;
59115;SDS011;53564;51.930;4.640;2022-08-18T17:21:02;12.00;;;4.43;;
59115;SDS011;53564;51.930;4.640;2022-08-18T17:23:29;11.52;;;4.55;;